Cranfield, United Kingdom
Current Conditions -  °F | °C
As of 11:50 AM on Wednesday 28 Jan 2015 (Local Time) from EGTC Reporting Station
Scattered Clouds Scattered Clouds  
Wind Chill: 35°   Ceiling: Unl
Heat Index: 45°   Visibility: 6mi
Dew Point: 39°   Wind: 25mph
Humidity: 81%   Direction: 280°W
Pressure: 29.47"   Gusts: NA
Location:  52.07°N, 0.61°W
Report Text: EGTC 281150Z 28022KT 9999 FEW010 SCT027 07/04 Q0998 RESHRA
Loading
Personal Weather Stations






























Interactive Weather Map New forecast layout! Learn more

10-Day Weather Forecast

Advertisements
Track Severe Weather on mobile